Pacific Freedom — WDH6614 — position and weather

sailwx.info

Track history (hours):
 
Tides and Currents Weather Stations Pressure Air Temp Water Temp Dewpoint Dewpoint Depression Visibility Wind Speed Wind Dir Waves Ship Positions

Pacific Freedom

Owner: Atlas Marine Towing, LLC, San Diego, CA. More information available from US FCC via Universal Licensing System and Coast Guard Vessel Documentation Center.

Last reported at 2018-Jan-18 06:10 UTC. Time now 2018-Jan-19 23:44 UTC.
Position N 32°42' W 117°09'.

Length 35 m; draft 4 m.

Type: Tug. MMSI: 367639830.

Date/timePositionNaut miles runAvg speedWind from/ knotsBaromVisibWave heightAir tempDewpointWater temp
2018-Jan-18 06:10N 32°42' W 117°09'  
2018-Jan-12 03:08N 32°42' W 117°09'0 0.0
2018-Jan-12 02:58N 32°42' W 117°09'0 0.0
2018-Jan-12 02:30N 32°42' W 117°09'  
2018-Jan-08 22:34N 32°38' W 117°16'510.2
2018-Jan-08 22:06N 32°41' W 117°20'110.5
2018-Jan-08 22:00N 32°42' W 117°21'510.3
2018-Jan-08 21:30N 32°45' W 117°26'510.2
2018-Jan-08 21:00N 32°48' W 117°30'510.2
2018-Jan-08 20:30N 32°52' W 117°35'510.0
2018-Jan-08 20:00N 32°55' W 117°39'5 9.8
2018-Jan-08 19:30N 32°58' W 117°43'5 9.9
2018-Jan-08 19:00N 33°02' W 117°48'510.0
2018-Jan-08 18:30N 33°05' W 117°52'5 9.9
2018-Jan-08 18:01N 33°09' W 117°57'510.0
2018-Jan-08 17:30N 33°12' W 118°01'510.0
2018-Jan-08 17:00N 33°15' W 118°05'510.1
2018-Jan-08 16:30N 33°19' W 118°10'6 9.9
2018-Jan-08 15:52N 33°23' W 118°16'4 9.9
2018-Jan-08 15:30N 33°25' W 118°19'610.0
2018-Jan-08 14:54N 33°29' W 118°25'510.1
2018-Jan-08 14:27N 33°31' W 118°29'5 9.9
2018-Jan-08 13:58N 33°34' W 118°34'510.0
2018-Jan-08 13:27N 33°37' W 118°39'510.0
2018-Jan-08 12:59N 33°40' W 118°43'5 9.9
2018-Jan-08 12:30N 33°43' W 118°48'5 9.8
2018-Jan-08 11:59N 33°46' W 118°53'5 9.6
2018-Jan-08 11:29N 33°49' W 118°57'5 9.7
2018-Jan-08 10:59N 33°52' W 119°02'5 9.6
2018-Jan-08 10:30N 33°54' W 119°06'5 9.7
2018-Jan-08 09:58N 33°58' W 119°11'5 9.8
2018-Jan-08 09:30N 34°00' W 119°16'5 9.5
2018-Jan-08 09:00N 34°02' W 119°21'5 9.7
2018-Jan-08 08:30N 34°04' W 119°27'5 9.8
2018-Jan-08 08:00N 34°05' W 119°32'5 9.8
2018-Jan-08 07:30N 34°07' W 119°38'5 9.8
2018-Jan-08 07:00N 34°11' W 119°42'5 9.5
2018-Jan-08 06:30N 34°13' W 119°47'  
Track history (hours):
 
Tides and Currents Weather Stations Pressure Air Temp Water Temp Dewpoint Dewpoint Depression Visibility Wind Speed Wind Dir Waves Ship Positions

Pacific Freedom

Owner: Atlas Marine Towing, LLC, San Diego, CA. More information available from US FCC via Universal Licensing System and Coast Guard Vessel Documentation Center.

Last reported at 2018-Jan-18 06:10 UTC. Time now 2018-Jan-19 23:44 UTC.
Position N 32°42' W 117°09'.

Length 35 m; draft 4 m.

Type: Tug. MMSI: 367639830.

Date/timePositionNaut miles runAvg speedWind from/ knotsBaromVisibWave heightAir tempDewpointWater temp
2018-Jan-18 06:10N 32°42' W 117°09'  
2018-Jan-12 03:08N 32°42' W 117°09'0 0.0
2018-Jan-12 02:58N 32°42' W 117°09'0 0.0
2018-Jan-12 02:30N 32°42' W 117°09'  
2018-Jan-08 22:34N 32°38' W 117°16'510.2
2018-Jan-08 22:06N 32°41' W 117°20'110.5
2018-Jan-08 22:00N 32°42' W 117°21'510.3
2018-Jan-08 21:30N 32°45' W 117°26'510.2
2018-Jan-08 21:00N 32°48' W 117°30'510.2
2018-Jan-08 20:30N 32°52' W 117°35'510.0
2018-Jan-08 20:00N 32°55' W 117°39'5 9.8
2018-Jan-08 19:30N 32°58' W 117°43'5 9.9
2018-Jan-08 19:00N 33°02' W 117°48'510.0
2018-Jan-08 18:30N 33°05' W 117°52'5 9.9
2018-Jan-08 18:01N 33°09' W 117°57'510.0
2018-Jan-08 17:30N 33°12' W 118°01'510.0
2018-Jan-08 17:00N 33°15' W 118°05'510.1
2018-Jan-08 16:30N 33°19' W 118°10'6 9.9
2018-Jan-08 15:52N 33°23' W 118°16'4 9.9
2018-Jan-08 15:30N 33°25' W 118°19'610.0
2018-Jan-08 14:54N 33°29' W 118°25'510.1
2018-Jan-08 14:27N 33°31' W 118°29'5 9.9
2018-Jan-08 13:58N 33°34' W 118°34'510.0
2018-Jan-08 13:27N 33°37' W 118°39'510.0
2018-Jan-08 12:59N 33°40' W 118°43'5 9.9
2018-Jan-08 12:30N 33°43' W 118°48'5 9.8
2018-Jan-08 11:59N 33°46' W 118°53'5 9.6
2018-Jan-08 11:29N 33°49' W 118°57'5 9.7
2018-Jan-08 10:59N 33°52' W 119°02'5 9.6
2018-Jan-08 10:30N 33°54' W 119°06'5 9.7
2018-Jan-08 09:58N 33°58' W 119°11'5 9.8
2018-Jan-08 09:30N 34°00' W 119°16'5 9.5
2018-Jan-08 09:00N 34°02' W 119°21'5 9.7
2018-Jan-08 08:30N 34°04' W 119°27'5 9.8
2018-Jan-08 08:00N 34°05' W 119°32'5 9.8
2018-Jan-08 07:30N 34°07' W 119°38'5 9.8
2018-Jan-08 07:00N 34°11' W 119°42'5 9.5
2018-Jan-08 06:30N 34°13' W 119°47'  

Dump ship's entire track history